sensor_id;sensor_type;location;lat;lon;timestamp;P1;durP1;ratioP1;P2;durP2;ratioP2
44197;SDS011;30157;55.512;37.764;2024-01-25T00:01:48;22.38;;;11.07;;
44197;SDS011;30157;55.512;37.764;2024-01-25T00:04:14;23.45;;;11.80;;
44197;SDS011;30157;55.512;37.764;2024-01-25T00:06:42;22.70;;;10.82;;
44197;SDS011;30157;55.512;37.764;2024-01-25T00:09:08;24.33;;;11.90;;
44197;SDS011;30157;55.512;37.764;2024-01-25T00:11:34;26.00;;;11.15;;
44197;SDS011;30157;55.512;37.764;2024-01-25T00:14:00;23.02;;;9.43;;
44197;SDS011;30157;55.512;37.764;2024-01-25T00:16:27;28.50;;;11.43;;
44197;SDS011;30157;55.512;37.764;2024-01-25T00:18:53;24.75;;;10.98;;
44197;SDS011;30157;55.512;37.764;2024-01-25T00:21:18;23.00;;;11.52;;
44197;SDS011;30157;55.512;37.764;2024-01-25T00:23:44;25.73;;;11.40;;
44197;SDS011;30157;55.512;37.764;2024-01-25T00:26:10;23.60;;;11.35;;
44197;SDS011;30157;55.512;37.764;2024-01-25T00:28:35;22.45;;;10.88;;
44197;SDS011;30157;55.512;37.764;2024-01-25T00:31:01;23.05;;;10.90;;
44197;SDS011;30157;55.512;37.764;2024-01-25T00:33:27;25.98;;;10.98;;
44197;SDS011;30157;55.512;37.764;2024-01-25T00:35:53;22.95;;;10.07;;
44197;SDS011;30157;55.512;37.764;2024-01-25T00:38:18;22.58;;;10.10;;
44197;SDS011;30157;55.512;37.764;2024-01-25T00:40:45;20.60;;;10.07;;
44197;SDS011;30157;55.512;37.764;2024-01-25T00:43:11;22.65;;;10.25;;
44197;SDS011;30157;55.512;37.764;2024-01-25T00:45:37;19.30;;;9.57;;
44197;SDS011;30157;55.512;37.764;2024-01-25T00:48:03;18.52;;;10.00;;
44197;SDS011;30157;55.512;37.764;2024-01-25T00:50:29;21.13;;;10.23;;
44197;SDS011;30157;55.512;37.764;2024-01-25T00:52:55;20.55;;;9.85;;
44197;SDS011;30157;55.512;37.764;2024-01-25T00:55:21;21.92;;;10.57;;
44197;SDS011;30157;55.512;37.764;2024-01-25T00:57:47;22.65;;;11.02;;
44197;SDS011;30157;55.512;37.764;2024-01-25T01:00:13;21.55;;;10.65;;
44197;SDS011;30157;55.512;37.764;2024-01-25T01:02:43;21.63;;;11.30;;
44197;SDS011;30157;55.512;37.764;2024-01-25T01:05:10;22.83;;;10.48;;
44197;SDS011;30157;55.512;37.764;2024-01-25T01:07:38;21.00;;;10.63;;
44197;SDS011;30157;55.512;37.764;2024-01-25T01:10:07;21.45;;;10.18;;
44197;SDS011;30157;55.512;37.764;2024-01-25T01:12:34;23.70;;;10.05;;
44197;SDS011;30157;55.512;37.764;2024-01-25T01:15:00;22.65;;;10.25;;
44197;SDS011;30157;55.512;37.764;2024-01-25T01:17:25;23.13;;;10.48;;
44197;SDS011;30157;55.512;37.764;2024-01-25T01:19:52;20.67;;;9.93;;
44197;SDS011;30157;55.512;37.764;2024-01-25T01:22:18;22.48;;;10.48;;
44197;SDS011;30157;55.512;37.764;2024-01-25T01:24:43;19.92;;;9.52;;
44197;SDS011;30157;55.512;37.764;2024-01-25T01:27:09;23.20;;;11.77;;
44197;SDS011;30157;55.512;37.764;2024-01-25T01:29:35;23.02;;;10.52;;
44197;SDS011;30157;55.512;37.764;2024-01-25T01:32:00;22.90;;;11.05;;
44197;SDS011;30157;55.512;37.764;2024-01-25T01:34:26;20.88;;;10.68;;
44197;SDS011;30157;55.512;37.764;2024-01-25T01:36:52;22.08;;;10.38;;
44197;SDS011;30157;55.512;37.764;2024-01-25T01:39:18;17.75;;;8.63;;
44197;SDS011;30157;55.512;37.764;2024-01-25T01:41:46;22.48;;;10.52;;
44197;SDS011;30157;55.512;37.764;2024-01-25T01:44:14;21.38;;;9.85;;
44197;SDS011;30157;55.512;37.764;2024-01-25T01:46:40;20.65;;;10.43;;
44197;SDS011;30157;55.512;37.764;2024-01-25T01:49:11;20.70;;;10.18;;
44197;SDS011;30157;55.512;37.764;2024-01-25T01:51:40;17.67;;;10.05;;
44197;SDS011;30157;55.512;37.764;2024-01-25T01:54:07;20.20;;;8.93;;
44197;SDS011;30157;55.512;37.764;2024-01-25T01:56:33;21.50;;;9.65;;
44197;SDS011;30157;55.512;37.764;2024-01-25T01:59:00;22.20;;;9.82;;
44197;SDS011;30157;55.512;37.764;2024-01-25T02:01:27;25.83;;;11.40;;
44197;SDS011;30157;55.512;37.764;2024-01-25T02:03:53;19.52;;;9.85;;
44197;SDS011;30157;55.512;37.764;2024-01-25T02:06:21;22.42;;;10.40;;
44197;SDS011;30157;55.512;37.764;2024-01-25T02:08:48;24.67;;;11.45;;
44197;SDS011;30157;55.512;37.764;2024-01-25T02:11:19;23.38;;;10.75;;
44197;SDS011;30157;55.512;37.764;2024-01-25T02:13:46;23.17;;;10.05;;
44197;SDS011;30157;55.512;37.764;2024-01-25T02:16:14;20.73;;;10.35;;
44197;SDS011;30157;55.512;37.764;2024-01-25T02:19:00;23.05;;;10.63;;
44197;SDS011;30157;55.512;37.764;2024-01-25T02:21:25;22.25;;;10.77;;
44197;SDS011;30157;55.512;37.764;2024-01-25T02:23:51;24.35;;;10.48;;
44197;SDS011;30157;55.512;37.764;2024-01-25T02:26:17;20.63;;;9.65;;
44197;SDS011;30157;55.512;37.764;2024-01-25T02:28:43;25.17;;;10.60;;
44197;SDS011;30157;55.512;37.764;2024-01-25T02:31:08;19.33;;;9.73;;
44197;SDS011;30157;55.512;37.764;2024-01-25T02:33:34;21.48;;;10.55;;
44197;SDS011;30157;55.512;37.764;2024-01-25T02:36:00;16.65;;;8.80;;
44197;SDS011;30157;55.512;37.764;2024-01-25T02:38:26;21.05;;;9.85;;
44197;SDS011;30157;55.512;37.764;2024-01-25T02:40:51;19.85;;;8.20;;
44197;SDS011;30157;55.512;37.764;2024-01-25T02:43:19;19.40;;;8.77;;
44197;SDS011;30157;55.512;37.764;2024-01-25T02:45:45;22.10;;;10.00;;
44197;SDS011;30157;55.512;37.764;2024-01-25T02:48:11;16.52;;;8.15;;
44197;SDS011;30157;55.512;37.764;2024-01-25T02:50:37;23.02;;;9.70;;
44197;SDS011;30157;55.512;37.764;2024-01-25T02:53:03;20.10;;;10.25;;
44197;SDS011;30157;55.512;37.764;2024-01-25T02:55:30;19.70;;;8.77;;
44197;SDS011;30157;55.512;37.764;2024-01-25T02:57:56;20.40;;;9.85;;
44197;SDS011;30157;55.512;37.764;2024-01-25T03:00:21;23.40;;;10.30;;
44197;SDS011;30157;55.512;37.764;2024-01-25T03:02:47;20.42;;;8.52;;
44197;SDS011;30157;55.512;37.764;2024-01-25T03:05:13;19.85;;;9.48;;
44197;SDS011;30157;55.512;37.764;2024-01-25T03:07:38;22.05;;;9.60;;
44197;SDS011;30157;55.512;37.764;2024-01-25T03:10:04;20.67;;;10.30;;
44197;SDS011;30157;55.512;37.764;2024-01-25T03:12:30;19.88;;;10.18;;
44197;SDS011;30157;55.512;37.764;2024-01-25T03:14:56;22.25;;;10.30;;
44197;SDS011;30157;55.512;37.764;2024-01-25T03:17:22;17.65;;;8.05;;
44197;SDS011;30157;55.512;37.764;2024-01-25T03:19:48;20.48;;;9.73;;
44197;SDS011;30157;55.512;37.764;2024-01-25T03:22:14;19.00;;;8.95;;
44197;SDS011;30157;55.512;37.764;2024-01-25T03:24:40;19.23;;;9.10;;
44197;SDS011;30157;55.512;37.764;2024-01-25T03:27:06;20.15;;;9.98;;
44197;SDS011;30157;55.512;37.764;2024-01-25T03:29:41;20.20;;;8.88;;
44197;SDS011;30157;55.512;37.764;2024-01-25T03:32:09;18.88;;;9.25;;
44197;SDS011;30157;55.512;37.764;2024-01-25T03:34:35;20.25;;;9.25;;
44197;SDS011;30157;55.512;37.764;2024-01-25T03:37:01;18.80;;;8.90;;
44197;SDS011;30157;55.512;37.764;2024-01-25T03:39:27;20.67;;;8.25;;
44197;SDS011;30157;55.512;37.764;2024-01-25T03:41:53;19.23;;;9.43;;
44197;SDS011;30157;55.512;37.764;2024-01-25T03:44:19;17.67;;;9.20;;
44197;SDS011;30157;55.512;37.764;2024-01-25T03:46:44;18.25;;;8.60;;
44197;SDS011;30157;55.512;37.764;2024-01-25T03:49:10;19.08;;;8.18;;
44197;SDS011;30157;55.512;37.764;2024-01-25T03:51:36;14.23;;;7.90;;
44197;SDS011;30157;55.512;37.764;2024-01-25T03:54:02;18.15;;;9.05;;
44197;SDS011;30157;55.512;37.764;2024-01-25T03:56:28;17.40;;;8.00;;
44197;SDS011;30157;55.512;37.764;2024-01-25T03:58:54;17.38;;;8.85;;
44197;SDS011;30157;55.512;37.764;2024-01-25T04:01:20;16.80;;;8.05;;
44197;SDS011;30157;55.512;37.764;2024-01-25T04:03:46;19.60;;;9.20;;
44197;SDS011;30157;55.512;37.764;2024-01-25T04:06:12;18.00;;;8.40;;
44197;SDS011;30157;55.512;37.764;2024-01-25T04:08:38;19.65;;;10.02;;
44197;SDS011;30157;55.512;37.764;2024-01-25T04:11:03;18.83;;;9.27;;
44197;SDS011;30157;55.512;37.764;2024-01-25T04:13:29;17.20;;;7.90;;
44197;SDS011;30157;55.512;37.764;2024-01-25T04:15:55;17.30;;;8.77;;
44197;SDS011;30157;55.512;37.764;2024-01-25T04:18:21;20.10;;;9.10;;
44197;SDS011;30157;55.512;37.764;2024-01-25T04:20:46;18.65;;;7.55;;
44197;SDS011;30157;55.512;37.764;2024-01-25T04:23:12;20.15;;;10.55;;
44197;SDS011;30157;55.512;37.764;2024-01-25T04:25:38;19.83;;;9.40;;
44197;SDS011;30157;55.512;37.764;2024-01-25T04:28:04;17.50;;;8.80;;
44197;SDS011;30157;55.512;37.764;2024-01-25T04:30:29;17.80;;;8.82;;
44197;SDS011;30157;55.512;37.764;2024-01-25T04:32:57;19.67;;;10.32;;
44197;SDS011;30157;55.512;37.764;2024-01-25T04:35:22;25.67;;;10.40;;
44197;SDS011;30157;55.512;37.764;2024-01-25T04:37:48;23.08;;;10.95;;
44197;SDS011;30157;55.512;37.764;2024-01-25T04:40:14;18.90;;;9.57;;
44197;SDS011;30157;55.512;37.764;2024-01-25T04:42:40;23.00;;;10.52;;
44197;SDS011;30157;55.512;37.764;2024-01-25T04:45:06;22.65;;;11.65;;
44197;SDS011;30157;55.512;37.764;2024-01-25T04:47:32;20.33;;;9.88;;
44197;SDS011;30157;55.512;37.764;2024-01-25T04:49:58;24.40;;;10.85;;
44197;SDS011;30157;55.512;37.764;2024-01-25T04:52:24;27.73;;;12.70;;
44197;SDS011;30157;55.512;37.764;2024-01-25T04:54:50;30.92;;;14.18;;
44197;SDS011;30157;55.512;37.764;2024-01-25T04:57:16;31.25;;;14.52;;
44197;SDS011;30157;55.512;37.764;2024-01-25T04:59:42;26.85;;;11.35;;
44197;SDS011;30157;55.512;37.764;2024-01-25T05:02:08;30.60;;;14.07;;
44197;SDS011;30157;55.512;37.764;2024-01-25T05:04:34;31.67;;;13.63;;
44197;SDS011;30157;55.512;37.764;2024-01-25T05:07:00;27.75;;;12.63;;
44197;SDS011;30157;55.512;37.764;2024-01-25T05:09:26;29.27;;;14.57;;
44197;SDS011;30157;55.512;37.764;2024-01-25T05:11:52;27.23;;;12.73;;
44197;SDS011;30157;55.512;37.764;2024-01-25T05:14:23;26.63;;;12.50;;
44197;SDS011;30157;55.512;37.764;2024-01-25T05:16:50;28.08;;;13.18;;
44197;SDS011;30157;55.512;37.764;2024-01-25T05:19:15;25.90;;;12.18;;
44197;SDS011;30157;55.512;37.764;2024-01-25T05:21:42;22.10;;;11.30;;
44197;SDS011;30157;55.512;37.764;2024-01-25T05:24:07;25.98;;;11.48;;
44197;SDS011;30157;55.512;37.764;2024-01-25T05:26:35;27.35;;;12.65;;
44197;SDS011;30157;55.512;37.764;2024-01-25T05:29:01;25.08;;;12.52;;
44197;SDS011;30157;55.512;37.764;2024-01-25T05:31:26;23.58;;;11.75;;
44197;SDS011;30157;55.512;37.764;2024-01-25T05:33:52;25.85;;;13.30;;
44197;SDS011;30157;55.512;37.764;2024-01-25T05:36:18;26.77;;;12.93;;
44197;SDS011;30157;55.512;37.764;2024-01-25T05:38:45;26.08;;;12.75;;
44197;SDS011;30157;55.512;37.764;2024-01-25T05:41:11;28.90;;;11.73;;
44197;SDS011;30157;55.512;37.764;2024-01-25T05:43:37;24.65;;;11.15;;
44197;SDS011;30157;55.512;37.764;2024-01-25T05:46:03;22.00;;;11.30;;
44197;SDS011;30157;55.512;37.764;2024-01-25T05:48:28;24.38;;;11.77;;
44197;SDS011;30157;55.512;37.764;2024-01-25T05:50:54;26.50;;;12.30;;
44197;SDS011;30157;55.512;37.764;2024-01-25T05:53:20;20.67;;;9.60;;
44197;SDS011;30157;55.512;37.764;2024-01-25T05:55:46;24.15;;;11.05;;
44197;SDS011;30157;55.512;37.764;2024-01-25T05:58:12;21.90;;;9.98;;
44197;SDS011;30157;55.512;37.764;2024-01-25T06:00:38;24.10;;;11.30;;
44197;SDS011;30157;55.512;37.764;2024-01-25T06:03:04;21.88;;;11.68;;
44197;SDS011;30157;55.512;37.764;2024-01-25T06:05:30;23.55;;;9.82;;
44197;SDS011;30157;55.512;37.764;2024-01-25T06:07:56;22.90;;;10.43;;
44197;SDS011;30157;55.512;37.764;2024-01-25T06:10:21;22.88;;;10.65;;
44197;SDS011;30157;55.512;37.764;2024-01-25T06:12:47;18.23;;;8.90;;
44197;SDS011;30157;55.512;37.764;2024-01-25T06:15:13;21.55;;;9.75;;
44197;SDS011;30157;55.512;37.764;2024-01-25T06:17:39;20.10;;;9.93;;
44197;SDS011;30157;55.512;37.764;2024-01-25T06:20:04;21.13;;;10.27;;
44197;SDS011;30157;55.512;37.764;2024-01-25T06:22:30;20.55;;;10.60;;
44197;SDS011;30157;55.512;37.764;2024-01-25T06:24:56;19.05;;;9.88;;
44197;SDS011;30157;55.512;37.764;2024-01-25T06:27:22;19.45;;;9.73;;
44197;SDS011;30157;55.512;37.764;2024-01-25T06:29:47;20.08;;;10.23;;
44197;SDS011;30157;55.512;37.764;2024-01-25T06:32:13;18.10;;;8.60;;
44197;SDS011;30157;55.512;37.764;2024-01-25T06:34:39;20.15;;;8.82;;
44197;SDS011;30157;55.512;37.764;2024-01-25T06:37:05;18.80;;;10.15;;
44197;SDS011;30157;55.512;37.764;2024-01-25T06:39:30;20.70;;;8.75;;
44197;SDS011;30157;55.512;37.764;2024-01-25T06:41:57;15.95;;;8.52;;
44197;SDS011;30157;55.512;37.764;2024-01-25T06:44:23;17.23;;;8.38;;
44197;SDS011;30157;55.512;37.764;2024-01-25T06:46:49;18.45;;;8.80;;
44197;SDS011;30157;55.512;37.764;2024-01-25T06:49:15;15.63;;;8.63;;
44197;SDS011;30157;55.512;37.764;2024-01-25T06:51:40;16.05;;;7.82;;
44197;SDS011;30157;55.512;37.764;2024-01-25T06:54:06;14.52;;;6.53;;
44197;SDS011;30157;55.512;37.764;2024-01-25T06:56:32;16.50;;;8.18;;
44197;SDS011;30157;55.512;37.764;2024-01-25T06:58:59;16.83;;;8.63;;
44197;SDS011;30157;55.512;37.764;2024-01-25T07:01:25;15.15;;;8.68;;
44197;SDS011;30157;55.512;37.764;2024-01-25T07:03:53;17.50;;;9.13;;
44197;SDS011;30157;55.512;37.764;2024-01-25T07:06:19;17.45;;;8.23;;
44197;SDS011;30157;55.512;37.764;2024-01-25T07:08:46;16.95;;;8.73;;
44197;SDS011;30157;55.512;37.764;2024-01-25T07:11:11;16.63;;;8.30;;
44197;SDS011;30157;55.512;37.764;2024-01-25T07:13:37;16.55;;;8.82;;
44197;SDS011;30157;55.512;37.764;2024-01-25T07:16:03;16.70;;;7.93;;
44197;SDS011;30157;55.512;37.764;2024-01-25T07:18:30;14.02;;;6.95;;
44197;SDS011;30157;55.512;37.764;2024-01-25T07:20:55;19.15;;;9.20;;
44197;SDS011;30157;55.512;37.764;2024-01-25T07:23:21;15.73;;;9.00;;
44197;SDS011;30157;55.512;37.764;2024-01-25T07:25:48;15.07;;;8.15;;
44197;SDS011;30157;55.512;37.764;2024-01-25T07:28:19;14.32;;;7.30;;
44197;SDS011;30157;55.512;37.764;2024-01-25T07:30:46;16.13;;;8.60;;
44197;SDS011;30157;55.512;37.764;2024-01-25T07:33:15;15.85;;;7.10;;
44197;SDS011;30157;55.512;37.764;2024-01-25T07:35:41;15.90;;;8.38;;
44197;SDS011;30157;55.512;37.764;2024-01-25T07:38:11;16.23;;;7.18;;
44197;SDS011;30157;55.512;37.764;2024-01-25T07:40:37;18.02;;;8.48;;
44197;SDS011;30157;55.512;37.764;2024-01-25T07:43:03;14.23;;;8.02;;
44197;SDS011;30157;55.512;37.764;2024-01-25T07:45:29;17.42;;;7.72;;
44197;SDS011;30157;55.512;37.764;2024-01-25T07:47:56;14.00;;;7.13;;
44197;SDS011;30157;55.512;37.764;2024-01-25T07:50:22;12.82;;;6.90;;
44197;SDS011;30157;55.512;37.764;2024-01-25T07:52:47;15.15;;;7.50;;
44197;SDS011;30157;55.512;37.764;2024-01-25T07:55:15;15.98;;;7.75;;
44197;SDS011;30157;55.512;37.764;2024-01-25T07:57:41;14.85;;;7.10;;
44197;SDS011;30157;55.512;37.764;2024-01-25T08:00:08;12.52;;;6.40;;
44197;SDS011;30157;55.512;37.764;2024-01-25T08:02:38;15.25;;;7.97;;
44197;SDS011;30157;55.512;37.764;2024-01-25T08:05:06;15.65;;;8.07;;
44197;SDS011;30157;55.512;37.764;2024-01-25T08:07:31;15.63;;;8.18;;
44197;SDS011;30157;55.512;37.764;2024-01-25T08:09:58;16.05;;;8.05;;
44197;SDS011;30157;55.512;37.764;2024-01-25T08:12:24;14.40;;;6.70;;
44197;SDS011;30157;55.512;37.764;2024-01-25T08:14:51;14.40;;;6.55;;
44197;SDS011;30157;55.512;37.764;2024-01-25T08:17:16;14.90;;;8.13;;
44197;SDS011;30157;55.512;37.764;2024-01-25T08:19:42;14.63;;;7.60;;
44197;SDS011;30157;55.512;37.764;2024-01-25T08:22:08;16.52;;;8.00;;
44197;SDS011;30157;55.512;37.764;2024-01-25T08:24:35;15.23;;;7.00;;
44197;SDS011;30157;55.512;37.764;2024-01-25T08:27:01;15.95;;;8.00;;
44197;SDS011;30157;55.512;37.764;2024-01-25T08:29:27;14.52;;;8.43;;
44197;SDS011;30157;55.512;37.764;2024-01-25T08:31:53;13.68;;;6.57;;
44197;SDS011;30157;55.512;37.764;2024-01-25T08:34:19;14.20;;;8.00;;
44197;SDS011;30157;55.512;37.764;2024-01-25T08:36:47;17.65;;;8.43;;
44197;SDS011;30157;55.512;37.764;2024-01-25T08:39:12;12.48;;;5.68;;
44197;SDS011;30157;55.512;37.764;2024-01-25T08:41:39;15.05;;;7.35;;
44197;SDS011;30157;55.512;37.764;2024-01-25T08:44:08;13.00;;;6.13;;
44197;SDS011;30157;55.512;37.764;2024-01-25T08:46:34;12.88;;;6.88;;
44197;SDS011;30157;55.512;37.764;2024-01-25T08:49:00;14.20;;;7.07;;
44197;SDS011;30157;55.512;37.764;2024-01-25T08:51:26;15.55;;;8.43;;
44197;SDS011;30157;55.512;37.764;2024-01-25T08:53:52;14.07;;;7.43;;
44197;SDS011;30157;55.512;37.764;2024-01-25T08:56:18;14.02;;;6.88;;
44197;SDS011;30157;55.512;37.764;2024-01-25T08:58:44;15.15;;;7.68;;
44197;SDS011;30157;55.512;37.764;2024-01-25T09:01:09;14.00;;;6.95;;
44197;SDS011;30157;55.512;37.764;2024-01-25T09:03:36;12.60;;;7.18;;
44197;SDS011;30157;55.512;37.764;2024-01-25T09:06:01;12.00;;;6.07;;
44197;SDS011;30157;55.512;37.764;2024-01-25T09:08:31;17.17;;;8.23;;
44197;SDS011;30157;55.512;37.764;2024-01-25T09:10:57;13.63;;;7.50;;
44197;SDS011;30157;55.512;37.764;2024-01-25T09:13:23;14.27;;;7.45;;
44197;SDS011;30157;55.512;37.764;2024-01-25T09:15:49;15.27;;;7.03;;
44197;SDS011;30157;55.512;37.764;2024-01-25T09:18:15;13.85;;;7.18;;
44197;SDS011;30157;55.512;37.764;2024-01-25T09:20:41;13.63;;;7.32;;
44197;SDS011;30157;55.512;37.764;2024-01-25T09:23:13;13.02;;;7.03;;
44197;SDS011;30157;55.512;37.764;2024-01-25T09:25:42;14.18;;;7.50;;
44197;SDS011;30157;55.512;37.764;2024-01-25T09:28:11;12.20;;;7.13;;
44197;SDS011;30157;55.512;37.764;2024-01-25T09:30:38;14.18;;;7.70;;
44197;SDS011;30157;55.512;37.764;2024-01-25T09:33:05;16.52;;;7.88;;
44197;SDS011;30157;55.512;37.764;2024-01-25T09:35:32;12.50;;;6.28;;
44197;SDS011;30157;55.512;37.764;2024-01-25T09:37:58;15.25;;;7.05;;
44197;SDS011;30157;55.512;37.764;2024-01-25T09:40:23;16.92;;;7.22;;
44197;SDS011;30157;55.512;37.764;2024-01-25T09:42:49;16.35;;;7.43;;
44197;SDS011;30157;55.512;37.764;2024-01-25T09:45:18;14.07;;;7.80;;
44197;SDS011;30157;55.512;37.764;2024-01-25T09:47:45;12.40;;;5.85;;
44197;SDS011;30157;55.512;37.764;2024-01-25T09:50:11;14.30;;;6.85;;
44197;SDS011;30157;55.512;37.764;2024-01-25T09:52:37;15.18;;;7.97;;
44197;SDS011;30157;55.512;37.764;2024-01-25T09:55:06;13.65;;;7.43;;
44197;SDS011;30157;55.512;37.764;2024-01-25T09:57:32;13.90;;;7.78;;
44197;SDS011;30157;55.512;37.764;2024-01-25T10:00:03;15.93;;;8.52;;
44197;SDS011;30157;55.512;37.764;2024-01-25T10:02:32;14.90;;;7.25;;
44197;SDS011;30157;55.512;37.764;2024-01-25T10:04:58;17.73;;;9.48;;
44197;SDS011;30157;55.512;37.764;2024-01-25T10:07:37;14.65;;;8.15;;
44197;SDS011;30157;55.512;37.764;2024-01-25T10:10:10;19.63;;;8.48;;
44197;SDS011;30157;55.512;37.764;2024-01-25T10:12:37;15.18;;;7.15;;
44197;SDS011;30157;55.512;37.764;2024-01-25T10:15:04;14.00;;;7.47;;
44197;SDS011;30157;55.512;37.764;2024-01-25T10:17:30;16.90;;;7.80;;
44197;SDS011;30157;55.512;37.764;2024-01-25T10:19:57;15.75;;;8.43;;
44197;SDS011;30157;55.512;37.764;2024-01-25T10:22:23;17.33;;;8.40;;
44197;SDS011;30157;55.512;37.764;2024-01-25T10:24:49;15.35;;;8.80;;
44197;SDS011;30157;55.512;37.764;2024-01-25T10:27:19;15.77;;;7.85;;
44197;SDS011;30157;55.512;37.764;2024-01-25T10:29:45;14.38;;;7.55;;
44197;SDS011;30157;55.512;37.764;2024-01-25T10:32:11;18.25;;;8.88;;
44197;SDS011;30157;55.512;37.764;2024-01-25T10:34:38;17.25;;;9.20;;
44197;SDS011;30157;55.512;37.764;2024-01-25T10:37:07;18.30;;;8.93;;
44197;SDS011;30157;55.512;37.764;2024-01-25T10:39:33;19.13;;;8.88;;
44197;SDS011;30157;55.512;37.764;2024-01-25T10:42:00;17.50;;;8.85;;
44197;SDS011;30157;55.512;37.764;2024-01-25T10:44:27;18.52;;;9.48;;
44197;SDS011;30157;55.512;37.764;2024-01-25T10:46:53;16.73;;;9.68;;
44197;SDS011;30157;55.512;37.764;2024-01-25T10:49:22;18.45;;;8.00;;
44197;SDS011;30157;55.512;37.764;2024-01-25T10:51:48;19.75;;;8.38;;
44197;SDS011;30157;55.512;37.764;2024-01-25T10:54:15;20.50;;;9.68;;
44197;SDS011;30157;55.512;37.764;2024-01-25T10:56:43;20.00;;;10.23;;
44197;SDS011;30157;55.512;37.764;2024-01-25T10:59:11;17.98;;;9.57;;
44197;SDS011;30157;55.512;37.764;2024-01-25T11:01:37;17.05;;;8.85;;
44197;SDS011;30157;55.512;37.764;2024-01-25T11:04:11;19.45;;;10.00;;
44197;SDS011;30157;55.512;37.764;2024-01-25T11:06:37;20.95;;;10.65;;
44197;SDS011;30157;55.512;37.764;2024-01-25T11:09:03;20.63;;;10.50;;
44197;SDS011;30157;55.512;37.764;2024-01-25T11:11:31;20.45;;;11.13;;
44197;SDS011;30157;55.512;37.764;2024-01-25T11:13:58;20.67;;;10.23;;
44197;SDS011;30157;55.512;37.764;2024-01-25T11:16:28;19.92;;;9.80;;
44197;SDS011;30157;55.512;37.764;2024-01-25T11:18:58;19.42;;;9.25;;
44197;SDS011;30157;55.512;37.764;2024-01-25T11:21:41;18.75;;;8.05;;
44197;SDS011;30157;55.512;37.764;2024-01-25T11:24:24;18.10;;;7.90;;
44197;SDS011;30157;55.512;37.764;2024-01-25T11:26:54;21.38;;;11.23;;
44197;SDS011;30157;55.512;37.764;2024-01-25T11:29:23;19.48;;;10.00;;
44197;SDS011;30157;55.512;37.764;2024-01-25T11:31:50;17.70;;;9.02;;
44197;SDS011;30157;55.512;37.764;2024-01-25T11:34:17;20.52;;;10.50;;
44197;SDS011;30157;55.512;37.764;2024-01-25T11:36:44;20.42;;;10.23;;
44197;SDS011;30157;55.512;37.764;2024-01-25T11:39:12;21.42;;;9.90;;
44197;SDS011;30157;55.512;37.764;2024-01-25T11:41:39;18.42;;;9.02;;
44197;SDS011;30157;55.512;37.764;2024-01-25T11:44:05;20.33;;;10.70;;
44197;SDS011;30157;55.512;37.764;2024-01-25T11:46:31;21.45;;;10.77;;
44197;SDS011;30157;55.512;37.764;2024-01-25T11:49:00;19.63;;;10.20;;
44197;SDS011;30157;55.512;37.764;2024-01-25T11:51:26;19.15;;;10.18;;
44197;SDS011;30157;55.512;37.764;2024-01-25T11:53:52;22.27;;;11.32;;
44197;SDS011;30157;55.512;37.764;2024-01-25T11:56:28;15.88;;;8.75;;
44197;SDS011;30157;55.512;37.764;2024-01-25T11:58:56;22.88;;;12.02;;
44197;SDS011;30157;55.512;37.764;2024-01-25T12:01:23;20.25;;;10.30;;
44197;SDS011;30157;55.512;37.764;2024-01-25T12:03:50;19.60;;;9.73;;
44197;SDS011;30157;55.512;37.764;2024-01-25T12:06:17;20.15;;;9.75;;
44197;SDS011;30157;55.512;37.764;2024-01-25T12:08:43;21.52;;;10.90;;
44197;SDS011;30157;55.512;37.764;2024-01-25T12:11:10;21.67;;;11.13;;
44197;SDS011;30157;55.512;37.764;2024-01-25T12:13:40;22.90;;;11.65;;
44197;SDS011;30157;55.512;37.764;2024-01-25T12:16:08;20.38;;;11.70;;
44197;SDS011;30157;55.512;37.764;2024-01-25T12:18:35;19.88;;;8.95;;
44197;SDS011;30157;55.512;37.764;2024-01-25T12:21:03;21.58;;;11.90;;
44197;SDS011;30157;55.512;37.764;2024-01-25T12:23:37;21.27;;;9.63;;
44197;SDS011;30157;55.512;37.764;2024-01-25T12:26:07;23.13;;;11.07;;
44197;SDS011;30157;55.512;37.764;2024-01-25T12:28:34;23.85;;;11.95;;
44197;SDS011;30157;55.512;37.764;2024-01-25T12:31:04;24.98;;;12.93;;
44197;SDS011;30157;55.512;37.764;2024-01-25T12:33:32;19.52;;;10.45;;
44197;SDS011;30157;55.512;37.764;2024-01-25T12:36:04;23.25;;;12.60;;
44197;SDS011;30157;55.512;37.764;2024-01-25T12:38:33;27.90;;;13.98;;
44197;SDS011;30157;55.512;37.764;2024-01-25T12:41:00;24.23;;;13.07;;
44197;SDS011;30157;55.512;37.764;2024-01-25T12:43:26;22.98;;;11.05;;
44197;SDS011;30157;55.512;37.764;2024-01-25T12:46:06;24.40;;;11.52;;
44197;SDS011;30157;55.512;37.764;2024-01-25T12:48:35;26.92;;;14.10;;
44197;SDS011;30157;55.512;37.764;2024-01-25T12:51:09;24.17;;;12.48;;
44197;SDS011;30157;55.512;37.764;2024-01-25T12:53:35;26.05;;;13.48;;
44197;SDS011;30157;55.512;37.764;2024-01-25T12:56:03;24.52;;;12.35;;
44197;SDS011;30157;55.512;37.764;2024-01-25T12:58:29;21.83;;;10.00;;
44197;SDS011;30157;55.512;37.764;2024-01-25T13:00:55;25.15;;;12.88;;
44197;SDS011;30157;55.512;37.764;2024-01-25T13:03:20;28.98;;;13.98;;
44197;SDS011;30157;55.512;37.764;2024-01-25T13:05:46;20.80;;;11.10;;
44197;SDS011;30157;55.512;37.764;2024-01-25T13:08:12;28.65;;;14.90;;
44197;SDS011;30157;55.512;37.764;2024-01-25T13:10:38;29.83;;;14.35;;
44197;SDS011;30157;55.512;37.764;2024-01-25T13:13:03;26.08;;;14.27;;
44197;SDS011;30157;55.512;37.764;2024-01-25T13:15:29;26.73;;;13.73;;
44197;SDS011;30157;55.512;37.764;2024-01-25T13:17:56;27.25;;;13.98;;
44197;SDS011;30157;55.512;37.764;2024-01-25T13:20:22;26.60;;;11.32;;
44197;SDS011;30157;55.512;37.764;2024-01-25T13:22:48;26.08;;;13.13;;
44197;SDS011;30157;55.512;37.764;2024-01-25T13:25:13;25.48;;;13.90;;
44197;SDS011;30157;55.512;37.764;2024-01-25T13:27:40;28.35;;;13.82;;
44197;SDS011;30157;55.512;37.764;2024-01-25T13:30:06;25.80;;;12.70;;
44197;SDS011;30157;55.512;37.764;2024-01-25T13:32:32;26.23;;;13.95;;
44197;SDS011;30157;55.512;37.764;2024-01-25T13:34:58;29.25;;;14.60;;
44197;SDS011;30157;55.512;37.764;2024-01-25T13:37:25;28.65;;;13.10;;
44197;SDS011;30157;55.512;37.764;2024-01-25T13:39:55;28.45;;;15.48;;
44197;SDS011;30157;55.512;37.764;2024-01-25T13:42:21;29.52;;;14.27;;
44197;SDS011;30157;55.512;37.764;2024-01-25T13:44:48;25.48;;;11.73;;
44197;SDS011;30157;55.512;37.764;2024-01-25T13:47:14;29.23;;;14.63;;
44197;SDS011;30157;55.512;37.764;2024-01-25T13:49:39;26.90;;;11.93;;
44197;SDS011;30157;55.512;37.764;2024-01-25T13:52:05;22.27;;;11.52;;
44197;SDS011;30157;55.512;37.764;2024-01-25T13:54:31;29.42;;;13.63;;
44197;SDS011;30157;55.512;37.764;2024-01-25T13:56:57;29.08;;;14.85;;
44197;SDS011;30157;55.512;37.764;2024-01-25T13:59:23;32.92;;;16.52;;
44197;SDS011;30157;55.512;37.764;2024-01-25T14:01:51;30.73;;;14.45;;
44197;SDS011;30157;55.512;37.764;2024-01-25T14:07:17;29.42;;;14.10;;
44197;SDS011;30157;55.512;37.764;2024-01-25T14:09:42;31.42;;;15.65;;
44197;SDS011;30157;55.512;37.764;2024-01-25T14:12:08;27.80;;;14.52;;
44197;SDS011;30157;55.512;37.764;2024-01-25T14:14:36;38.28;;;18.70;;
44197;SDS011;30157;55.512;37.764;2024-01-25T14:17:02;26.35;;;11.73;;